Time;durP1;ratioP1;P1;durP2;ratioP2;P2;SDS_P1;SDS_P2;PMS_P1;PMS_P2;Temp;Humidity;BMP_temperature;BMP_pressure;BME280_temperature;BME280_humidity;BME280_pressure;Samples;Min_cycle;Max_cycle;Signal;HPM_P1;HPM_P2
2022/07/01 00:01:43;;;;;;;;;;;;;;;21.58;28.40;97826.56;4993999;28;1036;-79
2022/07/01 00:04:09;;;;;;;;;;;;;;;21.57;28.31;97816.47;4993927;28;1061;-78
2022/07/01 00:06:34;;;;;;;;;;;;;;;21.57;28.62;97813.66;4993724;28;1910;-79
2022/07/01 00:09:00;;;;;;;;;;;;;;;21.49;28.55;97812.25;4961229;28;979;-79
2022/07/01 00:11:26;;;;;;;;;;;;;;;21.47;28.31;97817.59;4954922;29;1049;-78
2022/07/01 00:13:51;;;;;;;;;;;;;;;21.67;28.16;97826.69;4955180;29;1048;-78
2022/07/01 00:16:17;;;;;;;;;;;;;;;21.50;28.36;97825.16;4983705;28;993;-79
2022/07/01 00:18:42;;;;;;;;;;;;;;;21.85;27.69;97831.81;4993669;28;958;-79
2022/07/01 00:21:08;;;;;;;;;;;;;;;21.56;28.21;97820.56;4993707;28;962;-78
2022/07/01 00:23:33;;;;;;;;;;;;;;;21.43;28.24;97822.56;4993898;28;936;-78
2022/07/01 00:25:59;;;;;;;;;;;;;;;21.48;28.17;97819.16;4993626;28;1970;-78
2022/07/01 00:28:24;;;;;;;;;;;;;;;21.53;28.48;97819.41;4974050;28;997;-78
2022/07/01 00:30:49;;;;;;;;;;;;;;;21.53;28.22;97821.44;4974385;28;1057;-79
2022/07/01 00:33:15;;;;;;;;;;;;;;;21.31;28.35;97809.97;4974249;28;943;-78
2022/07/01 00:35:40;;;;;;;;;;;;;;;21.58;28.00;97801.88;4974406;28;957;-80
2022/07/01 00:38:06;;;;;;;;;;;;;;;21.52;28.12;97814.22;4973653;28;1040;-79
2022/07/01 00:40:31;;;;;;;;;;;;;;;21.59;28.19;97814.78;4977321;28;962;-79
2022/07/01 00:42:56;;;;;;;;;;;;;;;21.63;28.05;97809.00;5019967;28;1059;-78
2022/07/01 00:45:22;;;;;;;;;;;;;;;21.63;28.06;97809.00;5036909;28;1906;-79
2022/07/01 00:47:47;;;;;;;;;;;;;;;21.66;28.01;97798.81;5036935;28;934;-78
2022/07/01 00:50:13;;;;;;;;;;;;;;;21.48;28.23;97796.53;5036840;28;931;-79
2022/07/01 00:52:39;;;;;;;;;;;;;;;21.32;28.43;97798.19;5036757;28;983;-78
2022/07/01 00:55:06;;;;;;;;;;;;;;;21.47;28.17;97792.13;5036291;28;919;-79
2022/07/01 00:57:31;;;;;;;;;;;;;;;21.53;28.26;97795.97;5037022;28;1227;-78
2022/07/01 00:59:57;;;;;;;;;;;;;;;21.59;28.21;97794.16;5037850;28;1041;-79
2022/07/01 01:02:22;;;;;;;;;;;;;;;21.60;28.16;97790.09;5038777;28;848;-78
2022/07/01 01:04:48;;;;;;;;;;;;;;;21.60;28.13;97792.91;5020106;28;954;-79
2022/07/01 01:07:13;;;;;;;;;;;;;;;21.35;28.40;97798.50;5038739;28;1906;-79
2022/07/01 01:09:39;;;;;;;;;;;;;;;21.35;28.36;97792.84;5038684;28;846;-79
2022/07/01 01:12:04;;;;;;;;;;;;;;;21.56;28.22;97800.75;5038995;28;1030;-78
2022/07/01 01:14:30;;;;;;;;;;;;;;;21.46;28.36;97793.38;5037699;28;926;-78
2022/07/01 01:16:55;;;;;;;;;;;;;;;21.56;28.15;97792.25;5038288;28;893;-78
2022/07/01 01:19:21;;;;;;;;;;;;;;;21.47;28.35;97797.78;5038414;28;1023;-79
2022/07/01 01:21:46;;;;;;;;;;;;;;;21.50;28.30;97794.03;5038613;28;845;-79
2022/07/01 01:24:12;;;;;;;;;;;;;;;21.62;28.30;97796.09;5038176;28;954;-78
2022/07/01 01:26:38;;;;;;;;;;;;;;;21.58;28.00;97784.88;5038420;28;1984;-79
2022/07/01 01:29:04;;;;;;;;;;;;;;;21.54;28.12;97789.06;5038519;28;926;-79
2022/07/01 01:31:30;;;;;;;;;;;;;;;21.54;28.38;97789.06;5038623;28;913;-79
2022/07/01 01:33:55;;;;;;;;;;;;;;;21.61;28.20;97786.03;5038864;28;907;-79
2022/07/01 01:36:20;;;;;;;;;;;;;;;21.63;28.26;97791.25;5019403;28;970;-79
2022/07/01 01:38:46;;;;;;;;;;;;;;;21.60;28.18;97781.59;5038157;28;873;-79
2022/07/01 01:41:11;;;;;;;;;;;;;;;21.46;28.26;97790.53;5038440;28;912;-79
2022/07/01 01:43:37;;;;;;;;;;;;;;;21.52;28.56;97792.34;5019652;28;952;-79
2022/07/01 01:46:03;;;;;;;;;;;;;;;21.30;28.52;97792.19;5037927;28;1903;-79
2022/07/01 01:48:29;;;;;;;;;;;;;;;21.40;28.53;97800.78;5038160;28;1109;-78
2022/07/01 01:50:54;;;;;;;;;;;;;;;21.50;28.42;97799.69;5036971;28;890;-78
2022/07/01 01:53:20;;;;;;;;;;;;;;;21.57;28.14;97810.81;5037549;28;1008;-79
2022/07/01 01:55:45;;;;;;;;;;;;;;;21.62;28.15;97807.44;5037997;28;862;-78
2022/07/01 01:58:11;;;;;;;;;;;;;;;21.66;27.90;97807.31;5035458;28;1258;-78
2022/07/01 02:00:37;;;;;;;;;;;;;;;21.45;28.36;97808.72;5037625;28;967;-78
2022/07/01 02:03:02;;;;;;;;;;;;;;;21.43;28.25;97812.03;5037906;28;1034;-79
2022/07/01 02:05:28;;;;;;;;;;;;;;;21.58;28.24;97812.41;5037772;28;1894;-78
2022/07/01 02:07:53;;;;;;;;;;;;;;;21.37;28.54;97808.16;5037611;28;988;-79
2022/07/01 02:10:19;;;;;;;;;;;;;;;21.50;28.24;97811.84;5037976;28;923;-78
2022/07/01 02:12:44;;;;;;;;;;;;;;;21.45;28.19;97814.41;5037780;28;875;-78
2022/07/01 02:15:10;;;;;;;;;;;;;;;21.41;28.32;97813.72;5037624;28;856;-79
2022/07/01 02:17:35;;;;;;;;;;;;;;;21.55;28.13;97818.94;5037270;28;971;-79
2022/07/01 02:20:01;;;;;;;;;;;;;;;21.51;28.02;97812.63;5018726;28;1034;-79
2022/07/01 02:22:26;;;;;;;;;;;;;;;21.37;28.59;97813.03;5037265;28;936;-79
2022/07/01 02:24:52;;;;;;;;;;;;;;;21.47;28.12;97818.38;5037653;28;1030;-79
2022/07/01 02:27:17;;;;;;;;;;;;;;;21.47;28.14;97817.59;5037281;28;1985;-79
2022/07/01 02:29:43;;;;;;;;;;;;;;;21.45;28.26;97820.06;5037555;28;994;-79
2022/07/01 02:32:08;;;;;;;;;;;;;;;21.46;28.39;97816.00;5036222;28;899;-78
2022/07/01 02:34:34;;;;;;;;;;;;;;;21.54;28.16;97823.03;5037219;28;999;-79
2022/07/01 02:36:59;;;;;;;;;;;;;;;21.41;28.47;97813.72;5037177;28;948;-78
2022/07/01 02:39:24;;;;;;;;;;;;;;;21.59;28.14;97819.66;5034771;28;981;-78
2022/07/01 02:44:34;;;;;;;;;;;;;;;21.63;27.92;97817.50;5036898;28;959;-79
2022/07/01 02:47:00;;;;;;;;;;;;;;;21.70;27.82;97813.66;5001965;28;1938;-78
2022/07/01 02:49:25;;;;;;;;;;;;;;;21.72;27.82;97811.19;5036511;28;850;-79
2022/07/01 02:51:50;;;;;;;;;;;;;;;21.60;28.16;97815.56;5036950;28;936;-79
2022/07/01 02:54:16;;;;;;;;;;;;;;;21.29;28.61;97818.06;5037027;28;919;-78
2022/07/01 02:56:42;;;;;;;;;;;;;;;21.31;28.45;97824.09;5036789;28;1017;-79
2022/07/01 02:59:07;;;;;;;;;;;;;;;21.44;28.40;97829.78;5036752;28;917;-78
2022/07/01 03:01:32;;;;;;;;;;;;;;;21.59;28.12;97828.13;5036766;28;923;-79
2022/07/01 03:03:58;;;;;;;;;;;;;;;21.69;28.03;97827.03;5036474;28;968;-78
2022/07/01 03:06:23;;;;;;;;;;;;;;;21.54;28.46;97829.47;5036441;28;2024;-78
2022/07/01 03:08:49;;;;;;;;;;;;;;;21.65;28.05;97823.50;5036684;28;964;-79
2022/07/01 03:11:14;;;;;;;;;;;;;;;21.48;28.38;97825.63;5036640;28;915;-78
2022/07/01 03:13:40;;;;;;;;;;;;;;;21.49;28.24;97827.19;5017900;28;989;-79
2022/07/01 03:16:06;;;;;;;;;;;;;;;21.69;27.90;97840.41;5036361;28;922;-78
2022/07/01 03:18:31;;;;;;;;;;;;;;;21.22;28.84;97836.03;5036294;28;888;-79
2022/07/01 03:20:56;;;;;;;;;;;;;;;21.33;28.70;97824.44;5036009;28;955;-79
2022/07/01 03:23:22;;;;;;;;;;;;;;;21.50;28.24;97834.47;5036474;28;917;-79
2022/07/01 03:25:48;;;;;;;;;;;;;;;21.55;28.22;97831.09;5033663;28;1902;-79
2022/07/01 03:28:14;;;;;;;;;;;;;;;21.47;28.24;97834.56;5036126;28;958;-79
2022/07/01 03:30:39;;;;;;;;;;;;;;;21.53;28.28;97838.44;5036238;28;1017;-78
2022/07/01 03:33:05;;;;;;;;;;;;;;;21.68;27.99;97833.94;5017157;28;1586;-79
2022/07/01 03:35:36;;;;;;;;;;;;;;;21.45;28.31;97842.69;5035427;28;1470;-79
2022/07/01 03:38:03;;;;;;;;;;;;;;;21.46;28.50;97844.31;5035516;28;1429;-79
2022/07/01 03:40:28;;;;;;;;;;;;;;;21.59;28.14;97836.63;4993546;28;1579;-79
2022/07/01 03:42:54;;;;;;;;;;;;;;;21.56;28.28;97846.84;4993504;28;1534;-78
2022/07/01 03:45:19;;;;;;;;;;;;;;;21.41;28.40;97847.69;4994068;28;1906;-78
2022/07/01 03:47:46;;;;;;;;;;;;;;;21.45;28.39;97843.53;4993676;28;934;-79
2022/07/01 03:50:11;;;;;;;;;;;;;;;21.63;28.11;97847.88;4993664;28;946;-78
2022/07/01 03:52:37;;;;;;;;;;;;;;;21.78;27.76;97844.16;4994132;28;984;-78
2022/07/01 03:55:02;;;;;;;;;;;;;;;21.50;28.43;97840.13;4993794;28;1089;-79
2022/07/01 03:57:27;;;;;;;;;;;;;;;21.56;28.37;97841.16;4994415;28;1283;-79
2022/07/01 03:59:53;;;;;;;;;;;;;;;21.49;28.37;97849.84;4993924;28;1026;-79
2022/07/01 04:02:19;;;;;;;;;;;;;;;21.54;28.46;97857.00;4988299;28;2104;-79
2022/07/01 04:04:44;;;;;;;;;;;;;;;21.73;28.01;97850.38;4993609;28;1856;-78
2022/07/01 04:07:11;;;;;;;;;;;;;;;21.45;28.69;97856.84;4991484;28;1902;-79
2022/07/01 04:09:36;;;;;;;;;;;;;;;21.52;28.54;97856.66;4986362;28;1793;-78
2022/07/01 04:12:02;;;;;;;;;;;;;;;21.51;28.54;97867.19;5019054;28;919;-79
2022/07/01 04:14:27;;;;;;;;;;;;;;;21.65;28.35;97863.16;5037741;28;994;-78
2022/07/01 04:16:53;;;;;;;;;;;;;;;21.61;28.34;97856.81;5042031;28;949;-79
2022/07/01 04:19:18;;;;;;;;;;;;;;;21.59;28.81;97862.13;5041250;28;1774;-79
2022/07/01 04:24:28;;;;;;;;;;;;;;;21.54;28.64;97859.84;5042012;28;934;-79
2022/07/01 04:26:54;;;;;;;;;;;;;;;21.55;28.65;97859.41;5031673;28;1967;-79
2022/07/01 04:29:19;;;;;;;;;;;;;;;21.33;28.89;97859.19;5022025;28;1803;-78
2022/07/01 04:31:45;;;;;;;;;;;;;;;21.39;28.98;97861.47;5041332;28;1068;-79
2022/07/01 04:34:11;;;;;;;;;;;;;;;21.64;28.64;97860.78;5040132;28;1953;-79
2022/07/01 04:36:36;;;;;;;;;;;;;;;21.67;28.41;97866.34;5040354;28;1799;-79
2022/07/01 04:39:02;;;;;;;;;;;;;;;21.62;28.37;97872.56;5041515;28;992;-79
2022/07/01 04:44:12;;;;;;;;;;;;;;;21.61;28.58;97865.31;5034564;28;1823;-79
2022/07/01 04:46:37;;;;;;;;;;;;;;;21.49;28.54;97863.22;5041371;28;1985;-78
2022/07/01 04:49:03;;;;;;;;;;;;;;;21.50;28.61;97873.28;5041953;28;903;-78
2022/07/01 04:51:28;;;;;;;;;;;;;;;21.39;28.86;97869.97;5025894;28;1970;-79
2022/07/01 04:53:54;;;;;;;;;;;;;;;21.55;28.73;97869.91;5019163;28;1094;-78
2022/07/01 04:56:19;;;;;;;;;;;;;;;21.59;28.40;97868.56;5019361;28;1150;-78
2022/07/01 04:58:45;;;;;;;;;;;;;;;21.44;28.77;97869.41;4986682;28;1038;-78
2022/07/01 05:01:10;;;;;;;;;;;;;;;21.50;28.67;97878.94;5019517;28;964;-78
2022/07/01 05:03:36;;;;;;;;;;;;;;;21.57;28.61;97873.09;5025844;28;1899;-78
2022/07/01 05:06:01;;;;;;;;;;;;;;;21.62;28.67;97874.59;5020492;28;1902;-78
2022/07/01 05:08:27;;;;;;;;;;;;;;;21.48;29.12;97887.09;5019610;28;1090;-78
2022/07/01 05:10:52;;;;;;;;;;;;;;;21.69;28.72;97880.84;5019114;28;1589;-78
2022/07/01 05:13:17;;;;;;;;;;;;;;;21.53;28.71;97878.06;5019161;28;1304;-78
2022/07/01 05:15:43;;;;;;;;;;;;;;;21.53;28.88;97878.84;5019648;28;1967;-79
2022/07/01 05:23:36;;;;;;;;;;;;;;;21.64;28.83;97877.75;5019157;28;953;-78
2022/07/01 05:26:02;;;;;;;;;;;;;;;21.65;28.70;97885.00;4981650;28;1912;-79
2022/07/01 05:28:27;;;;;;;;;;;;;;;21.68;28.56;97876.41;5018045;28;964;-78
2022/07/01 05:30:53;;;;;;;;;;;;;;;21.56;28.86;97877.97;5018645;28;937;-79
2022/07/01 05:33:20;;;;;;;;;;;;;;;21.50;29.24;97879.78;5023059;28;1804;-79
2022/07/01 05:35:49;;;;;;;;;;;;;;;21.36;29.06;97885.81;5038577;28;991;-79
2022/07/01 05:38:14;;;;;;;;;;;;;;;21.63;28.72;97885.47;5035044;28;1223;-78
2022/07/01 05:40:40;;;;;;;;;;;;;;;21.74;28.62;97885.94;5018278;28;997;-79
2022/07/01 05:43:05;;;;;;;;;;;;;;;21.72;28.75;97885.63;5018342;28;979;-79
2022/07/01 05:45:31;;;;;;;;;;;;;;;21.63;28.84;97890.34;5015702;28;1910;-78
2022/07/01 05:47:56;;;;;;;;;;;;;;;21.63;29.03;97887.50;5015739;28;900;-78
2022/07/01 05:50:22;;;;;;;;;;;;;;;21.51;28.85;97889.06;5015549;28;935;-79
2022/07/01 05:52:48;;;;;;;;;;;;;;;21.60;28.84;97889.19;4995495;28;1104;-79
2022/07/01 05:55:13;;;;;;;;;;;;;;;21.64;28.75;97889.09;4995955;28;997;-81
2022/07/01 05:57:38;;;;;;;;;;;;;;;21.72;28.61;97882.78;5005790;28;1935;-81
2022/07/01 06:00:04;;;;;;;;;;;;;;;21.60;28.80;97883.50;4996228;28;882;-80
2022/07/01 06:02:37;;;;;;;;;;;;;;;21.60;29.18;97875.03;4995775;28;1516;-80
2022/07/01 06:05:02;;;;;;;;;;;;;;;21.45;29.03;97882.31;4996350;28;919;-81
2022/07/01 06:07:28;;;;;;;;;;;;;;;21.63;28.84;97885.47;5005325;28;1910;-80
2022/07/01 06:09:54;;;;;;;;;;;;;;;21.47;29.24;97880.66;4999577;28;978;-85
2022/07/01 06:12:20;;;;;;;;;;;;;;;21.72;29.07;97891.28;4983989;28;1777;-73
2022/07/01 06:14:45;;;;;;;;;;;;;;;22.08;29.34;97884.56;5010691;28;1781;-73
2022/07/01 06:17:12;;;;;;;;;;;;;;;21.81;30.37;97882.94;4983743;28;1508;-81
2022/07/01 06:19:38;;;;;;;;;;;;;;;21.80;30.28;97881.31;4979891;28;905;-79
2022/07/01 06:22:04;;;;;;;;;;;;;;;21.87;30.13;97885.22;4976091;28;946;-79
2022/07/01 06:24:29;;;;;;;;;;;;;;;21.79;30.75;97891.06;4991821;28;1051;-80
2022/07/01 06:26:55;;;;;;;;;;;;;;;21.52;31.24;97893.47;5011639;28;1922;-80
2022/07/01 06:29:20;;;;;;;;;;;;;;;21.29;31.89;97903.75;5002242;28;1880;-80
2022/07/01 06:31:46;;;;;;;;;;;;;;;21.42;31.96;97903.06;4995519;28;926;-80
2022/07/01 06:34:11;;;;;;;;;;;;;;;21.51;31.95;97897.56;4995528;28;1034;-79
2022/07/01 06:36:36;;;;;;;;;;;;;;;22.27;32.06;97900.56;4994680;28;1051;-75
2022/07/01 06:39:02;;;;;;;;;;;;;;;22.71;33.86;97909.31;4995067;28;1956;-77
2022/07/01 06:41:27;;;;;;;;;;;;;;;22.70;35.21;97907.75;4995478;28;1487;-78
2022/07/01 06:43:53;;;;;;;;;;;;;;;23.00;35.47;97902.72;4962306;28;985;-75
2022/07/01 06:46:19;;;;;;;;;;;;;;;23.36;35.35;97897.44;4994601;28;1975;-74
2022/07/01 06:48:44;;;;;;;;;;;;;;;23.34;36.29;97904.81;4994567;28;974;-75
2022/07/01 06:51:10;;;;;;;;;;;;;;;23.38;36.59;97897.75;4961992;28;1018;-76
2022/07/01 06:53:35;;;;;;;;;;;;;;;23.85;37.15;97888.34;5010374;28;1005;-79
2022/07/01 06:56:01;;;;;;;;;;;;;;;24.21;35.66;97892.69;5017527;28;1697;-79
2022/07/01 06:58:26;;;;;;;;;;;;;;;24.37;34.29;97892.47;5032239;28;1804;-76
2022/07/01 07:00:52;;;;;;;;;;;;;;;23.60;35.77;97894.94;5037839;28;945;-75
2022/07/01 07:03:17;;;;;;;;;;;;;;;24.49;35.67;97899.31;5038860;28;1485;-77
2022/07/01 07:05:43;;;;;;;;;;;;;;;24.37;34.29;97894.53;5002480;28;1910;-79
2022/07/01 07:08:08;;;;;;;;;;;;;;;24.45;34.17;97897.88;5004170;28;950;-80
2022/07/01 07:10:34;;;;;;;;;;;;;;;23.99;34.21;97891.94;5000598;28;1002;-80
2022/07/01 07:12:59;;;;;;;;;;;;;;;24.29;34.43;97893.97;5002593;28;1640;-78
2022/07/01 07:15:25;;;;;;;;;;;;;;;24.15;34.65;97900.22;5016760;28;1012;-78
2022/07/01 07:17:50;;;;;;;;;;;;;;;24.67;34.27;97898.63;4979677;28;1225;-79
2022/07/01 07:20:16;;;;;;;;;;;;;;;24.63;33.18;97901.59;4926714;29;920;-78
2022/07/01 07:22:41;;;;;;;;;;;;;;;24.38;32.97;97907.47;4921408;29;954;-81
2022/07/01 07:25:07;;;;;;;;;;;;;;;23.99;33.08;97904.09;4926658;29;910;-76
2022/07/01 07:27:32;;;;;;;;;;;;;;;24.29;32.60;97910.25;4910118;29;1999;-80
2022/07/01 07:29:57;;;;;;;;;;;;;;;24.04;32.95;97914.84;4889380;29;957;-76
2022/07/01 07:32:23;;;;;;;;;;;;;;;23.96;32.52;97913.53;4905375;29;932;-74
2022/07/01 07:34:48;;;;;;;;;;;;;;;24.00;32.66;97911.34;4891890;29;1142;-73
2022/07/01 07:37:14;;;;;;;;;;;;;;;24.65;31.14;97915.34;4873477;29;966;-72
2022/07/01 07:39:39;;;;;;;;;;;;;;;24.25;32.70;97921.78;4909806;29;1356;-76
2022/07/01 07:42:05;;;;;;;;;;;;;;;24.40;31.54;97920.00;4922137;29;1418;-76
2022/07/01 07:44:31;;;;;;;;;;;;;;;24.20;32.24;97919.53;4923596;29;1605;-77
2022/07/01 07:46:59;;;;;;;;;;;;;;;24.43;31.72;97921.88;4911628;29;1907;-79
2022/07/01 07:49:25;;;;;;;;;;;;;;;24.21;31.65;97918.28;4932797;29;1691;-78
2022/07/01 07:51:50;;;;;;;;;;;;;;;24.60;30.93;97913.09;4929936;29;1109;-79
2022/07/01 07:54:16;;;;;;;;;;;;;;;24.42;30.85;97925.19;4875505;29;959;-72
2022/07/01 07:56:41;;;;;;;;;;;;;;;24.94;30.92;97918.59;4866909;29;1194;-76
2022/07/01 07:59:07;;;;;;;;;;;;;;;24.93;30.42;97928.41;4917950;29;1124;-78
2022/07/01 08:01:32;;;;;;;;;;;;;;;24.98;30.57;97920.53;4905050;29;1125;-78
2022/07/01 08:03:58;;;;;;;;;;;;;;;25.03;30.64;97928.44;4897756;29;1322;-79
2022/07/01 08:06:23;;;;;;;;;;;;;;;24.39;31.78;97926.13;4919946;29;1962;-71
2022/07/01 08:08:49;;;;;;;;;;;;;;;24.68;32.25;97925.78;4916549;29;1898;-78
2022/07/01 08:11:14;;;;;;;;;;;;;;;24.63;31.50;97921.50;4937314;29;1030;-80
2022/07/01 08:13:40;;;;;;;;;;;;;;;24.65;31.27;97927.50;4919526;29;894;-79
2022/07/01 08:16:05;;;;;;;;;;;;;;;25.04;30.27;97930.03;4914927;29;1452;-80
2022/07/01 08:18:31;;;;;;;;;;;;;;;25.07;29.85;97920.56;4914975;29;1014;-83
2022/07/01 08:20:56;;;;;;;;;;;;;;;25.36;29.46;97929.47;4880501;29;1149;-79
2022/07/01 08:23:22;;;;;;;;;;;;;;;25.39;29.06;97922.06;4895883;29;811;-79
2022/07/01 08:25:47;;;;;;;;;;;;;;;25.16;29.03;97927.06;4894807;29;1927;-84
2022/07/01 08:28:13;;;;;;;;;;;;;;;24.50;31.03;97920.00;4882917;29;1481;-81
2022/07/01 08:30:40;;;;;;;;;;;;;;;24.07;31.27;97915.97;4885904;29;1540;-86
2022/07/01 08:33:05;;;;;;;;;;;;;;;24.11;31.09;97922.31;4902188;29;1016;-72
2022/07/01 08:35:30;;;;;;;;;;;;;;;24.93;31.07;97936.16;4916328;29;989;-73
2022/07/01 08:37:56;;;;;;;;;;;;;;;25.19;30.49;97931.03;4931172;29;1642;-79
2022/07/01 08:40:26;;;;;;;;;;;;;;;24.61;32.80;97926.09;4935338;29;1089;-76
2022/07/01 08:42:54;;;;;;;;;;;;;;;24.49;32.98;97924.13;4934533;29;1887;-72
2022/07/01 08:45:19;;;;;;;;;;;;;;;24.36;33.18;97916.50;4917857;29;1993;-71
2022/07/01 08:47:57;;;;;;;;;;;;;;;24.50;34.02;97925.69;4934188;29;1935;-76
2022/07/01 08:50:25;;;;;;;;;;;;;;;24.79;33.90;97931.06;4914735;29;1876;-75
2022/07/01 08:52:51;;;;;;;;;;;;;;;24.73;33.68;97928.03;4916268;29;969;-72
2022/07/01 08:55:16;;;;;;;;;;;;;;;25.12;33.59;97931.31;4915944;29;1072;-70
2022/07/01 08:57:42;;;;;;;;;;;;;;;25.17;33.37;97930.72;4965595;28;1207;-74
2022/07/01 09:00:08;;;;;;;;;;;;;;;25.05;33.65;97934.44;5014438;28;969;-76
2022/07/01 09:02:49;;;;;;;;;;;;;;;25.14;34.44;97940.22;5019741;28;815;-77
2022/07/01 09:05:14;;;;;;;;;;;;;;;25.03;34.13;97937.00;5017894;28;1649;-73
2022/07/01 09:07:40;;;;;;;;;;;;;;;24.67;34.53;97930.69;5019071;28;1968;-78
2022/07/01 09:10:18;;;;;;;;;;;;;;;25.14;33.65;97940.22;4983665;28;1614;-79
2022/07/01 09:12:46;;;;;;;;;;;;;;;25.15;34.02;97941.78;4979593;28;985;-79
2022/07/01 09:15:21;;;;;;;;;;;;;;;24.80;35.37;97939.09;4963582;28;1467;-82
2022/07/01 09:17:47;;;;;;;;;;;;;;;24.64;34.43;97942.22;4980984;28;1001;-84
2022/07/01 09:20:32;;;;;;;;;;;;;;;24.15;35.38;97940.81;4977068;28;1027;-72
2022/07/01 09:23:04;;;;;;;;;;;;;;;24.14;36.57;97938.44;4976819;28;1232;-77
2022/07/01 09:25:34;;;;;;;;;;;;;;;23.98;36.64;97941.47;4976994;28;1903;-75
2022/07/01 09:28:10;;;;;;;;;;;;;;;24.08;35.83;97931.75;4977405;28;1613;-80
2022/07/01 09:30:36;;;;;;;;;;;;;;;23.87;35.36;97941.88;4938997;29;1535;-80
2022/07/01 09:33:17;;;;;;;;;;;;;;;23.65;34.66;97941.88;4894021;29;1546;-81
2022/07/01 09:35:42;;;;;;;;;;;;;;;23.51;34.00;97937.44;4864173;29;878;-81
2022/07/01 09:38:10;;;;;;;;;;;;;;;23.65;32.99;97941.88;4876297;29;952;-81
2022/07/01 09:40:54;;;;;;;;;;;;;;;23.53;32.41;97934.16;4840587;29;897;-80
2022/07/01 09:43:20;;;;;;;;;;;;;;;23.54;32.08;97941.44;4827502;29;1027;-81
2022/07/01 09:45:53;;;;;;;;;;;;;;;23.38;31.83;97928.97;4827205;29;1912;-80
2022/07/01 09:48:18;;;;;;;;;;;;;;;23.32;31.47;97935.72;4845266;29;1628;-80
2022/07/01 09:50:44;;;;;;;;;;;;;;;23.21;31.39;97936.06;4840106;29;934;-80
2022/07/01 09:53:10;;;;;;;;;;;;;;;23.19;31.27;97935.72;4845320;29;900;-80
2022/07/01 09:55:35;;;;;;;;;;;;;;;23.20;30.87;97937.31;4845450;29;890;-81
2022/07/01 09:58:01;;;;;;;;;;;;;;;23.10;30.44;97929.94;4810721;29;1212;-80
2022/07/01 10:00:26;;;;;;;;;;;;;;;23.21;30.33;97935.25;4827274;29;804;-80
2022/07/01 10:02:52;;;;;;;;;;;;;;;23.17;29.97;97935.41;4818811;29;1780;-79
2022/07/01 10:05:19;;;;;;;;;;;;;;;23.19;29.78;97938.56;4882594;29;937;-80
2022/07/01 10:07:44;;;;;;;;;;;;;;;22.85;30.41;97942.91;4882238;29;985;-79
2022/07/01 10:10:33;;;;;;;;;;;;;;;23.09;29.83;97940.50;4865441;29;887;-79
2022/07/01 10:12:58;;;;;;;;;;;;;;;22.88;29.93;97947.69;4881599;29;1064;-79
2022/07/01 10:15:24;;;;;;;;;;;;;;;23.02;29.55;97951.31;4870912;29;1305;-79
2022/07/01 10:17:51;;;;;;;;;;;;;;;22.82;29.76;97943.81;4868780;29;1727;-79
2022/07/01 10:20:17;;;;;;;;;;;;;;;22.99;29.60;97946.53;4880696;29;1060;-79
2022/07/01 10:22:43;;;;;;;;;;;;;;;22.90;29.59;97943.59;4845148;29;906;-79
2022/07/01 10:25:27;;;;;;;;;;;;;;;22.96;29.16;97953.16;4878399;29;827;-79
2022/07/01 10:28:11;;;;;;;;;;;;;;;22.84;29.23;97952.66;4882740;29;982;-79
2022/07/01 10:30:36;;;;;;;;;;;;;;;22.91;29.13;97959.38;4900920;29;1032;-79
2022/07/01 10:33:02;;;;;;;;;;;;;;;22.92;28.98;97950.41;4901492;29;1346;-79
2022/07/01 10:35:27;;;;;;;;;;;;;;;22.84;29.05;97951.84;4885520;29;1082;-79
2022/07/01 10:37:59;;;;;;;;;;;;;;;22.88;28.98;97953.34;4901165;29;1109;-79
2022/07/01 10:40:40;;;;;;;;;;;;;;;22.88;28.84;97947.69;4900903;29;913;-79
2022/07/01 10:43:05;;;;;;;;;;;;;;;22.75;29.25;97949.72;4863393;29;952;-79
2022/07/01 10:45:40;;;;;;;;;;;;;;;22.85;29.13;97948.59;4863601;29;1997;-79
2022/07/01 10:48:19;;;;;;;;;;;;;;;22.62;29.37;97946.06;4855941;29;1251;-79
2022/07/01 10:50:45;;;;;;;;;;;;;;;22.56;29.17;97942.22;4931010;29;1495;-79
2022/07/01 10:53:10;;;;;;;;;;;;;;;22.84;28.91;97949.81;4901985;29;1509;-79
2022/07/01 10:55:37;;;;;;;;;;;;;;;22.92;28.72;97947.56;4941437;29;788;-79
2022/07/01 10:58:02;;;;;;;;;;;;;;;22.62;29.14;97946.06;4919038;29;1045;-79
2022/07/01 11:00:31;;;;;;;;;;;;;;;22.56;29.47;97942.22;4863092;29;1226;-79
2022/07/01 11:03:04;;;;;;;;;;;;;;;22.52;29.54;97941.53;4881656;29;1399;-79
2022/07/01 11:05:30;;;;;;;;;;;;;;;22.74;28.93;97948.13;4866054;29;1988;-79
2022/07/01 11:07:55;;;;;;;;;;;;;;;22.78;28.60;97945.16;4863552;29;940;-79
2022/07/01 11:10:20;;;;;;;;;;;;;;;22.68;28.97;97935.75;4847531;29;946;-79
2022/07/01 11:12:48;;;;;;;;;;;;;;;22.34;29.33;97948.56;4862830;29;890;-78
2022/07/01 11:15:14;;;;;;;;;;;;;;;22.50;28.95;97927.03;4865768;29;922;-79
2022/07/01 11:17:43;;;;;;;;;;;;;;;22.51;28.74;97934.28;4865788;29;895;-79
2022/07/01 11:20:09;;;;;;;;;;;;;;;22.36;29.09;97939.59;4844447;29;1475;-79
2022/07/01 11:22:35;;;;;;;;;;;;;;;22.55;28.79;97940.66;4844168;29;884;-79
2022/07/01 11:25:01;;;;;;;;;;;;;;;22.69;28.87;97933.72;4844129;29;863;-79
2022/07/01 11:27:27;;;;;;;;;;;;;;;22.67;28.87;97927.69;4844227;29;1911;-80
2022/07/01 11:29:52;;;;;;;;;;;;;;;22.76;28.92;97928.63;4810898;29;963;-79
2022/07/01 11:32:44;;;;;;;;;;;;;;;22.91;28.42;97928.97;4829146;29;946;-79
2022/07/01 11:40:59;;;;;;;;;;;;;;;22.50;29.52;97927.81;4862762;29;790;-79
2022/07/01 11:43:25;;;;;;;;;;;;;;;22.39;29.59;97932.25;4847545;29;1114;-79
2022/07/01 11:45:51;;;;;;;;;;;;;;;22.61;29.13;97933.16;4862936;29;1994;-79
2022/07/01 11:48:30;;;;;;;;;;;;;;;22.66;28.81;97918.41;4870411;29;1732;-79
2022/07/01 11:50:56;;;;;;;;;;;;;;;22.49;29.56;97914.09;4888580;29;856;-79
2022/07/01 11:53:21;;;;;;;;;;;;;;;22.59;29.34;97918.66;4899535;29;1068;-79
2022/07/01 11:55:47;;;;;;;;;;;;;;;22.79;28.87;97910.66;4899632;29;966;-79
2022/07/01 11:58:13;;;;;;;;;;;;;;;22.82;28.84;97914.66;4899481;29;1260;-79
2022/07/01 12:00:38;;;;;;;;;;;;;;;22.47;29.52;97916.59;4910395;29;1108;-79
2022/07/01 12:03:05;;;;;;;;;;;;;;;22.81;29.15;97924.41;4892318;29;1305;-79
2022/07/01 12:05:31;;;;;;;;;;;;;;;22.62;29.23;97917.72;4903273;29;1927;-79
2022/07/01 12:07:56;;;;;;;;;;;;;;;22.61;29.16;97916.94;4902467;29;862;-79
2022/07/01 12:10:25;;;;;;;;;;;;;;;22.40;29.57;97916.81;4918645;29;784;-79
2022/07/01 12:12:51;;;;;;;;;;;;;;;22.43;29.75;97915.91;4955814;28;1558;-79
2022/07/01 12:15:16;;;;;;;;;;;;;;;22.49;29.60;97909.22;4979280;28;838;-79
2022/07/01 12:17:42;;;;;;;;;;;;;;;22.51;29.61;97917.28;4995515;28;843;-79
2022/07/01 12:20:07;;;;;;;;;;;;;;;22.47;29.50;97919.41;4979281;28;960;-79
2022/07/01 12:22:33;;;;;;;;;;;;;;;22.34;29.84;97911.72;4994150;28;951;-79
2022/07/01 12:25:05;;;;;;;;;;;;;;;22.65;29.46;97911.16;4975473;28;885;-79
2022/07/01 12:27:32;;;;;;;;;;;;;;;22.41;29.88;97907.06;4956307;29;1983;-79
2022/07/01 12:29:58;;;;;;;;;;;;;;;22.57;29.50;97904.09;4937316;29;888;-79
2022/07/01 12:32:24;;;;;;;;;;;;;;;22.66;29.54;97895.72;4937019;29;826;-79
2022/07/01 12:34:50;;;;;;;;;;;;;;;22.55;29.62;97895.28;4938108;29;968;-79
2022/07/01 12:37:16;;;;;;;;;;;;;;;22.58;29.42;97895.13;4940661;29;1920;-79
2022/07/01 12:39:49;;;;;;;;;;;;;;;22.63;29.27;97886.06;4906402;29;1183;-80
2022/07/01 12:42:21;;;;;;;;;;;;;;;22.74;29.21;97891.41;4921739;29;871;-79
2022/07/01 12:44:47;;;;;;;;;;;;;;;22.59;29.27;97887.44;4921843;29;812;-79
2022/07/01 12:47:21;;;;;;;;;;;;;;;22.66;29.34;97892.09;4921620;29;1985;-80
2022/07/01 12:49:47;;;;;;;;;;;;;;;22.43;29.67;97887.53;4921676;29;1721;-79
2022/07/01 12:52:28;;;;;;;;;;;;;;;22.64;29.28;97901.06;4921706;29;768;-79
2022/07/01 12:54:55;;;;;;;;;;;;;;;22.52;29.25;97908.31;4905729;29;821;-79
2022/07/01 12:57:30;;;;;;;;;;;;;;;22.50;29.34;97905.13;4921946;29;1143;-79
2022/07/01 12:59:56;;;;;;;;;;;;;;;22.54;29.53;97905.03;4940698;29;1255;-79
2022/07/01 13:02:21;;;;;;;;;;;;;;;22.80;28.98;97911.47;4949562;29;902;-79
2022/07/01 13:04:47;;;;;;;;;;;;;;;22.76;29.17;97905.13;4974718;28;936;-79
2022/07/01 13:07:12;;;;;;;;;;;;;;;22.58;29.28;97906.47;4987120;28;1910;-79
2022/07/01 13:09:38;;;;;;;;;;;;;;;22.54;29.40;97916.38;4999840;28;748;-79
2022/07/01 13:12:03;;;;;;;;;;;;;;;22.51;29.45;97905.94;5020638;28;758;-79
2022/07/01 13:14:29;;;;;;;;;;;;;;;22.19;29.86;97906.94;5001831;28;893;-79
2022/07/01 13:16:54;;;;;;;;;;;;;;;22.51;29.54;97908.75;5019936;28;779;-79
2022/07/01 13:19:20;;;;;;;;;;;;;;;22.32;29.80;97910.56;5020562;28;1510;-79